12°C Temp
7°C Dewpoint
72% Humidity
Temperature
13 KM/H
8 MPH
7 KTS
180°
Due South

Wind Speed
Mostly Scattered
Clouds
Pressure 1022.92 (hPa) - 30.21 (in)
Visibility 6.2 (mi) - 10.0 (km)

Current Conditions
LIMJ
Location 7(km)
Metar :LIMJ 191220Z 18007KT 9999 SCT018 SCT030 12/07 Q1023
Tue 19th January 14:20 pm

Airport
  Metar Aviation API Data Provided by https://www.checkwx.com/ PHP scripts by weather34.com ©2021